createdAt,value
2023-03-17T00:01:56.308Z,8.40
2023-03-17T00:04:27.621Z,8.30
2023-03-17T00:06:55.345Z,8.40
2023-03-17T00:09:22.712Z,8.40
2023-03-17T00:11:50.018Z,8.30
2023-03-17T00:14:17.122Z,8.40
2023-03-17T00:16:52.761Z,8.30
2023-03-17T00:19:31.167Z,8.30
2023-03-17T00:22:00.018Z,8.20
2023-03-17T00:24:28.415Z,8.30
2023-03-17T00:26:55.281Z,8.20
2023-03-17T00:29:22.157Z,8.20
2023-03-17T00:31:50.725Z,8.20
2023-03-17T00:34:19.142Z,8.10
2023-03-17T00:36:49.749Z,8.10
2023-03-17T00:39:17.479Z,8.00
2023-03-17T00:41:44.318Z,8.10
2023-03-17T00:44:11.899Z,8.10
2023-03-17T00:46:41.335Z,8.00
2023-03-17T00:49:20.595Z,8.10
2023-03-17T00:51:48.802Z,8.00
2023-03-17T00:54:18.246Z,8.20
2023-03-17T00:56:46.091Z,8.00
2023-03-17T00:59:25.396Z,8.00
2023-03-17T01:01:52.526Z,8.00
2023-03-17T01:04:20.004Z,8.00
2023-03-17T01:06:48.231Z,8.00
2023-03-17T01:09:18.561Z,8.00
2023-03-17T01:11:46.971Z,8.00
2023-03-17T01:14:13.891Z,8.00
2023-03-17T01:16:41.084Z,8.00
2023-03-17T01:19:09.961Z,8.00
2023-03-17T01:21:36.793Z,8.00
2023-03-17T01:24:04.379Z,8.00
2023-03-17T01:26:31.530Z,8.00
2023-03-17T01:28:58.946Z,8.00
2023-03-17T01:31:26.274Z,7.90
2023-03-17T01:33:53.125Z,8.00
2023-03-17T01:36:20.673Z,8.00
2023-03-17T01:38:48.600Z,8.00
2023-03-17T01:41:15.366Z,8.00
2023-03-17T01:43:42.611Z,8.00
2023-03-17T01:46:32.608Z,8.00
2023-03-17T01:49:24.963Z,8.00
2023-03-17T01:52:18.311Z,8.00
2023-03-17T01:55:05.121Z,8.00
2023-03-17T01:57:39.647Z,8.00
2023-03-17T02:00:18.053Z,8.00
2023-03-17T02:02:50.202Z,8.00
2023-03-17T02:05:22.252Z,8.00
2023-03-17T02:10:20.452Z,8.00
2023-03-17T02:12:55.413Z,8.00
2023-03-17T02:15:23.997Z,8.00
2023-03-17T02:17:51.015Z,7.90
2023-03-17T02:20:17.669Z,8.00
2023-03-17T02:22:54.574Z,8.00
2023-03-17T02:25:24.128Z,7.90
2023-03-17T02:28:01.656Z,7.90
2023-03-17T02:30:29.556Z,7.90
2023-03-17T02:32:56.503Z,7.90
2023-03-17T02:35:23.368Z,7.90
2023-03-17T02:37:50.126Z,7.90
2023-03-17T02:40:17.446Z,7.90
2023-03-17T02:42:44.612Z,8.00
2023-03-17T02:45:13.272Z,7.90
2023-03-17T02:47:41.451Z,7.90
2023-03-17T02:50:14.590Z,7.90
2023-03-17T02:52:41.490Z,7.90
2023-03-17T02:55:08.798Z,8.70
2023-03-17T03:02:32.071Z,7.90
2023-03-17T03:04:58.851Z,7.90
2023-03-17T03:07:26.321Z,7.90
2023-03-17T03:09:53.106Z,7.90
2023-03-17T03:12:19.880Z,7.90
2023-03-17T03:14:47.614Z,7.90
2023-03-17T03:17:14.419Z,7.90
2023-03-17T03:19:41.176Z,7.80
2023-03-17T03:22:08.890Z,7.90
2023-03-17T03:24:36.351Z,7.90
2023-03-17T03:27:03.242Z,7.90
2023-03-17T03:29:29.988Z,7.90
2023-03-17T03:31:57.002Z,7.90
2023-03-17T03:34:23.774Z,7.90
2023-03-17T03:36:50.597Z,7.90
2023-03-17T03:39:17.357Z,8.00
2023-03-17T03:41:44.148Z,8.00
2023-03-17T03:44:11.013Z,8.00
2023-03-17T03:46:37.800Z,8.00
2023-03-17T03:49:04.689Z,8.00
2023-03-17T03:51:31.560Z,8.00
2023-03-17T03:53:58.332Z,8.00
2023-03-17T03:56:25.454Z,8.00
2023-03-17T03:58:52.432Z,8.00
2023-03-17T04:01:19.563Z,8.00
2023-03-17T04:03:48.017Z,8.00
2023-03-17T04:06:14.824Z,8.00
2023-03-17T04:08:41.657Z,8.00
2023-03-17T04:11:08.794Z,7.80
2023-03-17T04:13:36.036Z,8.00
2023-03-17T04:16:03.394Z,8.00
2023-03-17T04:18:31.627Z,8.10
2023-03-17T04:20:58.502Z,8.00
2023-03-17T04:23:25.469Z,8.10
2023-03-17T04:25:53.615Z,8.00
2023-03-17T04:28:22.414Z,8.00
2023-03-17T04:30:49.197Z,8.00
2023-03-17T04:33:16.041Z,7.90
2023-03-17T04:35:42.784Z,7.90
2023-03-17T04:38:13.102Z,8.00
2023-03-17T04:40:39.993Z,7.90
2023-03-17T04:43:07.193Z,7.90
2023-03-17T04:45:34.010Z,7.90
2023-03-17T04:48:00.896Z,7.90
2023-03-17T04:50:27.688Z,7.90
2023-03-17T04:52:54.471Z,7.90
2023-03-17T04:55:21.400Z,7.90
2023-03-17T04:57:48.244Z,7.90
2023-03-17T05:00:15.581Z,7.80
2023-03-17T05:02:42.502Z,7.90
2023-03-17T05:05:09.931Z,7.90
2023-03-17T05:07:36.665Z,7.80
2023-03-17T05:10:06.029Z,7.80
2023-03-17T05:12:32.822Z,7.90
2023-03-17T05:14:59.557Z,7.70
2023-03-17T05:17:26.399Z,7.80
2023-03-17T05:19:53.306Z,8.00
2023-03-17T05:22:20.050Z,7.80
2023-03-17T05:24:47.613Z,7.80
2023-03-17T05:27:14.362Z,7.80
2023-03-17T05:29:41.383Z,7.80
2023-03-17T05:32:08.162Z,7.80
2023-03-17T05:34:34.915Z,7.80
2023-03-17T05:37:01.723Z,7.80
2023-03-17T05:39:28.561Z,7.80
2023-03-17T05:41:55.379Z,7.80
2023-03-17T05:44:22.145Z,7.80
2023-03-17T05:46:49.362Z,7.80
2023-03-17T05:49:16.245Z,7.90
2023-03-17T05:51:44.307Z,6.60
2023-03-17T05:54:11.061Z,7.90
2023-03-17T05:56:37.920Z,7.90
2023-03-17T05:59:04.923Z,7.90
2023-03-17T06:01:31.667Z,8.00
2023-03-17T06:03:58.404Z,8.00
2023-03-17T06:06:25.771Z,8.00
2023-03-17T06:08:52.945Z,8.10
2023-03-17T06:11:21.512Z,8.10
2023-03-17T06:16:16.957Z,8.20
2023-03-17T06:18:45.752Z,8.20
2023-03-17T06:21:13.819Z,8.20
2023-03-17T06:23:40.612Z,8.30
2023-03-17T06:26:07.433Z,8.30
2023-03-17T06:28:34.274Z,8.30
2023-03-17T06:31:01.163Z,8.30
2023-03-17T06:33:28.654Z,8.30
2023-03-17T06:35:55.429Z,8.40
2023-03-17T06:40:49.406Z,8.40
2023-03-17T06:43:17.537Z,8.40
2023-03-17T06:45:44.330Z,8.40
2023-03-17T06:48:11.598Z,8.50
2023-03-17T06:50:38.344Z,8.50
2023-03-17T06:53:05.310Z,8.50
2023-03-17T06:55:33.289Z,8.60
2023-03-17T06:58:01.904Z,8.60
2023-03-17T07:00:30.297Z,8.60
2023-03-17T07:02:57.798Z,8.50
2023-03-17T07:05:24.593Z,8.60
2023-03-17T07:07:51.328Z,8.60
2023-03-17T07:10:18.627Z,8.70
2023-03-17T07:12:45.996Z,8.70
2023-03-17T07:15:13.127Z,8.80
2023-03-17T07:17:40.139Z,8.70
2023-03-17T07:20:07.564Z,8.90
2023-03-17T07:22:35.040Z,8.90
2023-03-17T07:25:01.901Z,8.80
2023-03-17T07:27:29.299Z,9.00
2023-03-17T07:29:56.501Z,9.00
2023-03-17T07:32:23.250Z,9.10
2023-03-17T07:34:50.200Z,9.10
2023-03-17T07:37:17.566Z,9.10
2023-03-17T07:39:44.719Z,9.20
2023-03-17T07:42:15.661Z,9.30
2023-03-17T07:44:42.605Z,9.60
2023-03-17T07:47:11.415Z,9.40
2023-03-17T07:49:41.907Z,9.40
2023-03-17T07:52:10.839Z,9.50
2023-03-17T07:54:38.078Z,9.60
2023-03-17T07:57:06.302Z,9.70
2023-03-17T07:59:33.751Z,9.70
2023-03-17T08:02:01.392Z,9.70
2023-03-17T08:04:29.193Z,9.90
2023-03-17T08:06:57.440Z,9.90
2023-03-17T08:09:24.365Z,10.00
2023-03-17T08:11:51.186Z,10.10
2023-03-17T08:14:17.983Z,10.10
2023-03-17T08:16:45.040Z,10.10
2023-03-17T08:19:11.841Z,10.20
2023-03-17T08:21:38.647Z,10.30
2023-03-17T08:24:05.880Z,10.40
2023-03-17T08:26:32.824Z,10.50
2023-03-17T08:29:00.320Z,10.60
2023-03-17T08:31:27.219Z,10.70
2023-03-17T08:33:57.034Z,10.80
2023-03-17T08:36:24.455Z,10.90
2023-03-17T08:38:51.750Z,11.00
2023-03-17T08:41:23.730Z,11.10
2023-03-17T08:43:51.723Z,11.20
2023-03-17T08:46:27.109Z,11.30
2023-03-17T08:48:56.630Z,11.50
2023-03-17T08:51:28.441Z,11.50
2023-03-17T08:53:55.692Z,11.60
2023-03-17T08:56:23.146Z,11.70
2023-03-17T08:58:51.689Z,11.70
2023-03-17T09:01:21.263Z,11.80
2023-03-17T09:03:49.654Z,11.90
2023-03-17T09:06:16.910Z,11.90
2023-03-17T09:08:48.044Z,12.00
2023-03-17T09:11:18.062Z,12.10
2023-03-17T09:13:46.513Z,12.20
2023-03-17T09:16:15.020Z,12.30
2023-03-17T09:18:42.675Z,12.30
2023-03-17T09:21:13.271Z,12.40
2023-03-17T09:23:41.133Z,12.50
2023-03-17T09:28:36.279Z,12.60
2023-03-17T09:31:07.710Z,12.70
2023-03-17T09:33:35.578Z,12.80
2023-03-17T09:36:02.357Z,12.90
2023-03-17T09:38:29.096Z,13.00
2023-03-17T09:41:14.122Z,13.00
2023-03-17T09:44:03.672Z,13.10
2023-03-17T09:46:53.651Z,13.20
2023-03-17T09:49:27.545Z,13.30
2023-03-17T09:51:54.446Z,13.40
2023-03-17T09:54:36.454Z,13.50
2023-03-17T09:57:26.202Z,13.50
2023-03-17T10:00:01.852Z,13.60
2023-03-17T10:02:32.689Z,13.60
2023-03-17T10:05:19.659Z,13.80
2023-03-17T10:08:30.636Z,13.90
2023-03-17T10:11:30.419Z,14.00
2023-03-17T10:14:21.477Z,14.00
2023-03-17T10:16:54.635Z,14.10
2023-03-17T10:19:43.097Z,14.20
2023-03-17T10:22:30.261Z,14.20
2023-03-17T10:25:24.604Z,14.30
2023-03-17T10:28:08.791Z,14.40
2023-03-17T10:30:36.341Z,14.50
2023-03-17T10:33:09.024Z,14.50
2023-03-17T10:35:38.560Z,14.60
2023-03-17T10:38:19.825Z,14.60
2023-03-17T10:40:57.394Z,14.80
2023-03-17T10:43:30.510Z,14.80
2023-03-17T10:46:04.645Z,14.90
2023-03-17T10:48:37.822Z,15.00
2023-03-17T10:51:10.180Z,15.00
2023-03-17T10:53:43.310Z,15.10
2023-03-17T10:56:22.685Z,15.20
2023-03-17T10:58:53.494Z,15.30
2023-03-17T11:01:33.996Z,15.30
2023-03-17T11:04:02.668Z,15.40
2023-03-17T11:06:51.484Z,15.50
2023-03-17T11:09:21.240Z,15.60
2023-03-17T11:12:00.383Z,15.60
2023-03-17T11:14:28.353Z,15.70
2023-03-17T11:16:56.813Z,15.80
2023-03-17T11:19:57.622Z,15.90
2023-03-17T11:22:40.109Z,15.90
2023-03-17T11:25:19.855Z,15.90
2023-03-17T11:28:19.810Z,16.00
2023-03-17T11:31:32.174Z,16.10
2023-03-17T11:34:19.946Z,16.20
2023-03-17T11:37:26.218Z,16.20
2023-03-17T11:40:27.220Z,16.30
2023-03-17T11:43:43.916Z,16.30
2023-03-17T11:46:28.245Z,16.40
2023-03-17T11:49:24.379Z,16.40
2023-03-17T11:52:28.652Z,16.50
2023-03-17T11:55:25.064Z,16.50
2023-03-17T11:58:03.349Z,16.60
2023-03-17T12:00:42.080Z,16.60
2023-03-17T12:03:38.518Z,16.60
2023-03-17T12:06:15.577Z,16.60
2023-03-17T12:08:53.679Z,16.60
2023-03-17T12:11:26.190Z,16.60
2023-03-17T12:14:04.759Z,16.60
2023-03-17T12:16:45.947Z,16.70
2023-03-17T12:19:38.103Z,16.70
2023-03-17T12:22:14.474Z,16.80
2023-03-17T12:25:02.778Z,16.80
2023-03-17T12:27:38.257Z,16.80
2023-03-17T12:30:20.778Z,16.80
2023-03-17T12:33:12.098Z,16.80
2023-03-17T12:35:39.385Z,16.90
2023-03-17T12:38:39.319Z,16.90
2023-03-17T12:41:31.598Z,16.90
2023-03-17T12:44:44.799Z,17.00
2023-03-17T12:47:36.760Z,17.10
2023-03-17T12:53:28.393Z,17.20
2023-03-17T12:56:02.514Z,17.30
2023-03-17T12:58:40.317Z,17.40
2023-03-17T13:01:58.396Z,17.50
2023-03-17T13:04:35.488Z,17.50
2023-03-17T13:07:17.199Z,17.60
2023-03-17T13:09:54.537Z,17.60
2023-03-17T13:12:39.417Z,17.70
2023-03-17T13:15:34.975Z,17.70
2023-03-17T13:18:16.864Z,17.70
2023-03-17T13:20:50.608Z,17.80
2023-03-17T13:23:23.425Z,17.80
2023-03-17T13:25:53.791Z,17.90
2023-03-17T13:28:40.713Z,17.90
2023-03-17T13:31:27.488Z,17.90
2023-03-17T13:34:01.883Z,18.00
2023-03-17T13:36:58.032Z,18.00
2023-03-17T13:40:35.044Z,18.10
2023-03-17T13:43:43.504Z,18.10
2023-03-17T13:46:28.599Z,18.20
2023-03-17T13:48:56.795Z,18.30
2023-03-17T13:51:27.713Z,18.30
2023-03-17T13:54:06.651Z,18.30
2023-03-17T13:56:36.606Z,18.30
2023-03-17T13:59:05.118Z,18.40
2023-03-17T14:01:41.461Z,18.30
2023-03-17T14:04:20.358Z,18.30
2023-03-17T14:06:50.823Z,18.30
2023-03-17T14:09:30.774Z,18.30
2023-03-17T14:12:02.311Z,18.30
2023-03-17T14:14:44.139Z,18.30
2023-03-17T14:17:44.674Z,18.40
2023-03-17T14:20:18.388Z,18.40
2023-03-17T14:22:52.370Z,18.40
2023-03-17T14:25:35.661Z,18.40
2023-03-17T14:28:10.643Z,18.30
2023-03-17T14:30:37.905Z,18.40
2023-03-17T14:33:22.613Z,18.10
2023-03-17T14:35:53.921Z,18.40
2023-03-17T14:38:28.408Z,18.40
2023-03-17T14:41:22.623Z,18.30
2023-03-17T14:43:52.877Z,18.30
2023-03-17T14:46:27.392Z,18.30
2023-03-17T14:49:05.316Z,18.30
2023-03-17T14:51:39.190Z,18.20
2023-03-17T14:54:22.792Z,18.20
2023-03-17T14:57:03.281Z,18.20
2023-03-17T14:59:31.980Z,18.20
2023-03-17T15:02:04.015Z,18.00
2023-03-17T15:04:34.101Z,18.10
2023-03-17T15:07:05.729Z,18.10
2023-03-17T15:09:41.193Z,18.00
2023-03-17T15:12:21.775Z,18.10
2023-03-17T15:14:56.354Z,18.00
2023-03-17T15:17:36.138Z,18.10
2023-03-17T15:20:11.882Z,18.00
2023-03-17T15:22:38.537Z,18.00
2023-03-17T15:25:28.441Z,17.90
2023-03-17T15:27:56.201Z,17.90
2023-03-17T15:33:02.905Z,17.90
2023-03-17T15:35:29.850Z,17.80
2023-03-17T15:37:56.933Z,17.70
2023-03-17T15:42:51.088Z,17.70
2023-03-17T15:45:18.329Z,17.70
2023-03-17T15:47:48.390Z,17.60
2023-03-17T15:50:29.237Z,17.50
2023-03-17T15:52:57.284Z,17.60
2023-03-17T15:55:31.383Z,17.50
2023-03-17T15:57:59.187Z,17.50
2023-03-17T16:00:29.958Z,17.50
2023-03-17T16:03:04.237Z,17.50
2023-03-17T16:05:33.707Z,17.40
2023-03-17T16:08:00.624Z,17.40
2023-03-17T16:10:32.987Z,17.40
2023-03-17T16:13:00.339Z,17.30
2023-03-17T16:15:31.950Z,17.30
2023-03-17T16:18:02.455Z,17.30
2023-03-17T16:20:39.168Z,17.20
2023-03-17T16:23:18.000Z,17.20
2023-03-17T16:25:46.751Z,17.10
2023-03-17T16:28:20.227Z,17.10
2023-03-17T16:30:49.094Z,17.00
2023-03-17T16:33:24.140Z,17.00
2023-03-17T16:35:53.314Z,17.00
2023-03-17T16:38:23.894Z,16.90
2023-03-17T16:40:58.923Z,16.90
2023-03-17T16:43:28.766Z,16.80
2023-03-17T16:45:59.186Z,16.80
2023-03-17T16:48:26.874Z,16.70
2023-03-17T16:50:54.178Z,16.70
2023-03-17T16:53:21.687Z,16.60
2023-03-17T16:55:49.266Z,16.60
2023-03-17T16:58:32.437Z,16.50
2023-03-17T17:01:10.217Z,16.40
2023-03-17T17:03:37.899Z,16.40
2023-03-17T17:06:07.060Z,16.30
2023-03-17T17:08:33.988Z,16.30
2023-03-17T17:11:00.960Z,16.30
2023-03-17T17:13:27.793Z,16.20
2023-03-17T17:15:55.788Z,16.10
2023-03-17T17:18:24.609Z,16.10
2023-03-17T17:20:53.795Z,16.00
2023-03-17T17:23:26.851Z,16.00
2023-03-17T17:25:54.592Z,15.90
2023-03-17T17:28:24.370Z,15.90
2023-03-17T17:30:53.100Z,15.80
2023-03-17T17:33:21.682Z,15.80
2023-03-17T17:35:49.853Z,15.80
2023-03-17T17:38:20.509Z,15.70
2023-03-17T17:40:48.881Z,15.70
2023-03-17T17:43:18.083Z,15.60
2023-03-17T17:45:49.311Z,15.60
2023-03-17T17:48:23.461Z,15.60
2023-03-17T17:50:52.330Z,15.50
2023-03-17T17:53:19.338Z,15.50
2023-03-17T17:55:48.112Z,15.50
2023-03-17T17:58:19.294Z,15.40
2023-03-17T18:00:46.217Z,15.40
2023-03-17T18:03:13.323Z,15.40
2023-03-17T18:05:40.265Z,15.30
2023-03-17T18:08:07.155Z,15.30
2023-03-17T18:10:34.799Z,15.30
2023-03-17T18:13:01.950Z,15.20
2023-03-17T18:15:29.091Z,15.20
2023-03-17T18:17:56.250Z,15.20
2023-03-17T18:20:25.282Z,15.20
2023-03-17T18:22:52.855Z,15.10
2023-03-17T18:25:20.266Z,15.10
2023-03-17T18:27:47.949Z,15.10
2023-03-17T18:30:23.808Z,15.10
2023-03-17T18:32:55.418Z,15.00
2023-03-17T18:35:25.307Z,15.00
2023-03-17T18:37:52.193Z,15.00
2023-03-17T18:40:19.676Z,15.00
2023-03-17T18:42:47.265Z,14.90
2023-03-17T18:45:14.828Z,14.90
2023-03-17T18:47:42.093Z,14.80
2023-03-17T18:50:13.464Z,14.80
2023-03-17T18:52:43.728Z,14.70
2023-03-17T18:55:13.105Z,14.70
2023-03-17T18:57:42.544Z,14.70
2023-03-17T19:00:14.297Z,14.70
2023-03-17T19:02:41.218Z,14.70
2023-03-17T19:05:09.272Z,14.70
2023-03-17T19:07:38.440Z,14.60
2023-03-17T19:10:07.656Z,14.70
2023-03-17T19:12:34.473Z,14.70
2023-03-17T19:15:01.751Z,14.70
2023-03-17T19:17:28.708Z,14.70
2023-03-17T19:19:55.802Z,14.60
2023-03-17T19:22:23.036Z,14.60
2023-03-17T19:24:50.390Z,14.50
2023-03-17T19:27:17.803Z,14.50
2023-03-17T19:29:44.644Z,14.60
2023-03-17T19:32:11.675Z,14.60
2023-03-17T19:34:38.479Z,13.70
2023-03-17T19:37:05.763Z,14.50
2023-03-17T19:39:33.810Z,14.50
2023-03-17T19:42:00.907Z,14.50
2023-03-17T19:44:27.987Z,14.50
2023-03-17T19:46:54.840Z,14.40
2023-03-17T19:49:22.370Z,14.40
2023-03-17T19:51:50.068Z,14.40
2023-03-17T19:54:18.712Z,14.40
2023-03-17T19:56:46.017Z,14.40
2023-03-17T19:59:14.740Z,14.40
2023-03-17T20:01:42.260Z,14.30
2023-03-17T20:06:40.073Z,14.30
2023-03-17T20:09:08.808Z,14.30
2023-03-17T20:11:36.307Z,14.30
2023-03-17T20:14:04.314Z,14.30
2023-03-17T20:16:33.530Z,14.20
2023-03-17T20:19:01.864Z,14.20
2023-03-17T20:21:28.898Z,14.20
2023-03-17T20:23:56.289Z,14.20
2023-03-17T20:26:23.312Z,14.30
2023-03-17T20:28:50.198Z,14.20
2023-03-17T20:31:18.006Z,14.10
2023-03-17T20:33:44.750Z,14.20
2023-03-17T20:36:12.932Z,14.20
2023-03-17T20:38:40.599Z,14.10
2023-03-17T20:41:12.851Z,14.20
2023-03-17T20:43:40.351Z,14.20
2023-03-17T20:46:09.267Z,14.20
2023-03-17T20:48:37.605Z,14.10
2023-03-17T20:51:06.286Z,14.10
2023-03-17T20:53:34.316Z,14.10
2023-03-17T20:56:01.148Z,14.10
2023-03-17T20:58:29.891Z,14.10
2023-03-17T21:01:00.895Z,14.10
2023-03-17T21:03:27.933Z,14.00
2023-03-17T21:05:55.009Z,14.00
2023-03-17T21:08:22.053Z,14.00
2023-03-17T21:10:50.195Z,14.00
2023-03-17T21:13:17.969Z,14.00
2023-03-17T21:18:14.528Z,13.90
2023-03-17T21:20:42.223Z,13.90
2023-03-17T21:23:09.204Z,13.90
2023-03-17T21:25:36.241Z,13.70
2023-03-17T21:28:05.061Z,13.80
2023-03-17T21:30:33.806Z,13.70
2023-03-17T21:33:01.914Z,13.70
2023-03-17T21:35:30.819Z,13.70
2023-03-17T21:37:57.869Z,13.70
2023-03-17T21:40:26.125Z,13.60
2023-03-17T21:42:54.339Z,13.60
2023-03-17T21:45:21.957Z,13.60
2023-03-17T21:47:49.327Z,13.50
2023-03-17T21:50:18.406Z,13.50
2023-03-17T21:52:45.481Z,13.40
2023-03-17T21:55:12.599Z,13.40
2023-03-17T21:57:39.376Z,13.40
2023-03-17T22:00:10.468Z,13.30
2023-03-17T22:02:37.866Z,13.30
2023-03-17T22:05:06.918Z,17.60
2023-03-17T22:07:33.780Z,13.20
2023-03-17T22:10:01.204Z,13.20
2023-03-17T22:12:28.758Z,13.10
2023-03-17T22:14:58.575Z,13.10
2023-03-17T22:17:25.982Z,13.10
2023-03-17T22:19:53.239Z,13.10
2023-03-17T22:22:21.200Z,13.00
2023-03-17T22:24:48.706Z,13.10
2023-03-17T22:27:17.668Z,13.00
2023-03-17T22:29:44.768Z,13.00
2023-03-17T22:32:11.723Z,13.00
2023-03-17T22:34:38.599Z,13.00
2023-03-17T22:37:05.735Z,13.00
2023-03-17T22:39:34.574Z,13.00
2023-03-17T22:42:02.056Z,13.00
2023-03-17T22:44:28.789Z,12.90
2023-03-17T22:46:55.767Z,12.90
2023-03-17T22:49:23.606Z,12.90
2023-03-17T22:51:50.514Z,12.90
2023-03-17T22:54:18.639Z,12.90
2023-03-17T22:56:45.683Z,12.90
2023-03-17T22:59:12.510Z,12.90
2023-03-17T23:01:39.597Z,12.90
2023-03-17T23:04:10.400Z,12.90
2023-03-17T23:06:37.966Z,12.90
2023-03-17T23:09:05.219Z,12.90
2023-03-17T23:11:32.209Z,12.80
2023-03-17T23:16:27.191Z,12.80
2023-03-17T23:21:34.245Z,12.80
2023-03-17T23:24:03.761Z,12.70
2023-03-17T23:26:32.000Z,12.70
2023-03-17T23:29:01.987Z,12.70
2023-03-17T23:31:28.753Z,12.70
2023-03-17T23:33:56.738Z,12.70
2023-03-17T23:36:23.529Z,12.60
2023-03-17T23:38:52.104Z,12.70
2023-03-17T23:41:19.513Z,12.70
2023-03-17T23:43:46.873Z,12.60
2023-03-17T23:46:14.722Z,12.60
2023-03-17T23:48:42.894Z,12.60
2023-03-17T23:51:12.362Z,12.60
2023-03-17T23:53:41.740Z,12.60
2023-03-17T23:56:11.499Z,12.60
2023-03-17T23:58:39.668Z,12.70
